sensor_id;sensor_type;location;lat;lon;timestamp;P1;durP1;ratioP1;P2;durP2;ratioP2
72113;SDS011;59989;46.220;19.888;2023-07-28T00:02:46;0.70;;;0.30;;
72113;SDS011;59989;46.220;19.888;2023-07-28T00:05:49;0.90;;;0.40;;
72113;SDS011;59989;46.220;19.888;2023-07-28T00:08:51;1.08;;;0.40;;
72113;SDS011;59989;46.220;19.888;2023-07-28T00:11:55;0.90;;;0.30;;
72113;SDS011;59989;46.220;19.888;2023-07-28T00:15:01;0.80;;;0.30;;
72113;SDS011;59989;46.220;19.888;2023-07-28T00:18:03;0.70;;;0.30;;
72113;SDS011;59989;46.220;19.888;2023-07-28T00:21:06;1.42;;;0.50;;
72113;SDS011;59989;46.220;19.888;2023-07-28T00:24:08;0.90;;;0.30;;
72113;SDS011;59989;46.220;19.888;2023-07-28T00:27:11;0.93;;;0.30;;
72113;SDS011;59989;46.220;19.888;2023-07-28T00:30:19;1.00;;;0.40;;
72113;SDS011;59989;46.220;19.888;2023-07-28T00:33:22;0.60;;;0.20;;
72113;SDS011;59989;46.220;19.888;2023-07-28T00:36:24;0.82;;;0.30;;
72113;SDS011;59989;46.220;19.888;2023-07-28T00:39:27;2.47;;;0.40;;
72113;SDS011;59989;46.220;19.888;2023-07-28T00:42:30;1.10;;;0.40;;
72113;SDS011;59989;46.220;19.888;2023-07-28T00:45:33;0.63;;;0.20;;
72113;SDS011;59989;46.220;19.888;2023-07-28T00:48:36;0.60;;;0.20;;
72113;SDS011;59989;46.220;19.888;2023-07-28T00:51:41;0.95;;;0.38;;
72113;SDS011;59989;46.220;19.888;2023-07-28T00:54:45;0.70;;;0.20;;
72113;SDS011;59989;46.220;19.888;2023-07-28T00:57:47;1.05;;;0.40;;
72113;SDS011;59989;46.220;19.888;2023-07-28T01:00:51;0.70;;;0.30;;
72113;SDS011;59989;46.220;19.888;2023-07-28T01:03:53;1.23;;;0.43;;
72113;SDS011;59989;46.220;19.888;2023-07-28T01:07:16;0.90;;;0.30;;
72113;SDS011;59989;46.220;19.888;2023-07-28T01:10:30;0.85;;;0.30;;
72113;SDS011;59989;46.220;19.888;2023-07-28T01:13:37;0.70;;;0.30;;
72113;SDS011;59989;46.220;19.888;2023-07-28T01:16:39;0.70;;;0.20;;
72113;SDS011;59989;46.220;19.888;2023-07-28T01:19:42;0.70;;;0.20;;
72113;SDS011;59989;46.220;19.888;2023-07-28T01:22:53;0.80;;;0.20;;
72113;SDS011;59989;46.220;19.888;2023-07-28T01:26:09;1.20;;;0.40;;
72113;SDS011;59989;46.220;19.888;2023-07-28T01:29:13;1.00;;;0.35;;
72113;SDS011;59989;46.220;19.888;2023-07-28T01:32:17;1.33;;;0.50;;
72113;SDS011;59989;46.220;19.888;2023-07-28T01:35:20;0.80;;;0.30;;
72113;SDS011;59989;46.220;19.888;2023-07-28T01:38:22;0.73;;;0.30;;
72113;SDS011;59989;46.220;19.888;2023-07-28T01:41:25;1.23;;;0.45;;
72113;SDS011;59989;46.220;19.888;2023-07-28T01:44:28;0.68;;;0.30;;
72113;SDS011;59989;46.220;19.888;2023-07-28T01:47:30;0.70;;;0.30;;
72113;SDS011;59989;46.220;19.888;2023-07-28T01:50:33;0.90;;;0.30;;
72113;SDS011;59989;46.220;19.888;2023-07-28T01:53:36;0.73;;;0.30;;
72113;SDS011;59989;46.220;19.888;2023-07-28T01:56:38;0.80;;;0.30;;
72113;SDS011;59989;46.220;19.888;2023-07-28T01:59:41;1.05;;;0.40;;
72113;SDS011;59989;46.220;19.888;2023-07-28T02:02:43;0.63;;;0.30;;
72113;SDS011;59989;46.220;19.888;2023-07-28T02:05:46;1.37;;;0.50;;
72113;SDS011;59989;46.220;19.888;2023-07-28T02:08:49;0.98;;;0.30;;
72113;SDS011;59989;46.220;19.888;2023-07-28T02:11:51;0.80;;;0.30;;
72113;SDS011;59989;46.220;19.888;2023-07-28T02:14:54;0.80;;;0.30;;
72113;SDS011;59989;46.220;19.888;2023-07-28T02:17:57;0.77;;;0.30;;
72113;SDS011;59989;46.220;19.888;2023-07-28T02:21:00;0.67;;;0.23;;
72113;SDS011;59989;46.220;19.888;2023-07-28T02:24:02;1.02;;;0.30;;
72113;SDS011;59989;46.220;19.888;2023-07-28T02:27:05;0.77;;;0.30;;
72113;SDS011;59989;46.220;19.888;2023-07-28T02:30:08;4.13;;;0.40;;
72113;SDS011;59989;46.220;19.888;2023-07-28T02:33:10;0.70;;;0.30;;
72113;SDS011;59989;46.220;19.888;2023-07-28T02:36:14;0.73;;;0.30;;
72113;SDS011;59989;46.220;19.888;2023-07-28T02:39:17;0.80;;;0.30;;
72113;SDS011;59989;46.220;19.888;2023-07-28T02:42:20;1.00;;;0.32;;
72113;SDS011;59989;46.220;19.888;2023-07-28T02:45:23;1.00;;;0.30;;
72113;SDS011;59989;46.220;19.888;2023-07-28T02:48:26;0.77;;;0.30;;
72113;SDS011;59989;46.220;19.888;2023-07-28T02:51:29;0.80;;;0.27;;
72113;SDS011;59989;46.220;19.888;2023-07-28T02:54:34;1.05;;;0.40;;
72113;SDS011;59989;46.220;19.888;2023-07-28T02:57:36;1.35;;;0.50;;
72113;SDS011;59989;46.220;19.888;2023-07-28T03:00:39;0.90;;;0.40;;
72113;SDS011;59989;46.220;19.888;2023-07-28T03:03:43;1.17;;;0.37;;
72113;SDS011;59989;46.220;19.888;2023-07-28T03:06:47;0.80;;;0.30;;
72113;SDS011;59989;46.220;19.888;2023-07-28T03:09:50;0.98;;;0.35;;
72113;SDS011;59989;46.220;19.888;2023-07-28T03:12:55;1.00;;;0.30;;
72113;SDS011;59989;46.220;19.888;2023-07-28T03:15:58;0.95;;;0.43;;
72113;SDS011;59989;46.220;19.888;2023-07-28T03:19:00;0.77;;;0.30;;
72113;SDS011;59989;46.220;19.888;2023-07-28T03:22:03;0.70;;;0.30;;
72113;SDS011;59989;46.220;19.888;2023-07-28T03:25:06;0.60;;;0.20;;
72113;SDS011;59989;46.220;19.888;2023-07-28T03:28:08;0.75;;;0.30;;
72113;SDS011;59989;46.220;19.888;2023-07-28T03:31:11;0.93;;;0.35;;
72113;SDS011;59989;46.220;19.888;2023-07-28T03:34:14;0.83;;;0.30;;
72113;SDS011;59989;46.220;19.888;2023-07-28T03:37:17;1.00;;;0.40;;
72113;SDS011;59989;46.220;19.888;2023-07-28T03:40:20;0.93;;;0.43;;
72113;SDS011;59989;46.220;19.888;2023-07-28T03:43:26;0.80;;;0.30;;
72113;SDS011;59989;46.220;19.888;2023-07-28T03:46:28;1.13;;;0.40;;
72113;SDS011;59989;46.220;19.888;2023-07-28T03:49:32;1.27;;;0.47;;
72113;SDS011;59989;46.220;19.888;2023-07-28T03:52:35;0.70;;;0.30;;
72113;SDS011;59989;46.220;19.888;2023-07-28T03:55:37;0.47;;;0.20;;
72113;SDS011;59989;46.220;19.888;2023-07-28T03:58:40;0.70;;;0.30;;
72113;SDS011;59989;46.220;19.888;2023-07-28T04:01:43;0.80;;;0.30;;
72113;SDS011;59989;46.220;19.888;2023-07-28T04:04:45;1.03;;;0.40;;
72113;SDS011;59989;46.220;19.888;2023-07-28T04:07:48;1.40;;;0.63;;
72113;SDS011;59989;46.220;19.888;2023-07-28T04:10:51;0.85;;;0.30;;
72113;SDS011;59989;46.220;19.888;2023-07-28T04:13:53;0.95;;;0.30;;
72113;SDS011;59989;46.220;19.888;2023-07-28T04:16:55;0.82;;;0.30;;
72113;SDS011;59989;46.220;19.888;2023-07-28T04:19:58;1.50;;;0.60;;
72113;SDS011;59989;46.220;19.888;2023-07-28T04:23:00;1.00;;;0.33;;
72113;SDS011;59989;46.220;19.888;2023-07-28T04:26:09;1.33;;;0.50;;
72113;SDS011;59989;46.220;19.888;2023-07-28T04:29:13;1.27;;;0.47;;
72113;SDS011;59989;46.220;19.888;2023-07-28T04:32:16;1.00;;;0.40;;
72113;SDS011;59989;46.220;19.888;2023-07-28T04:35:18;0.70;;;0.30;;
72113;SDS011;59989;46.220;19.888;2023-07-28T04:38:32;0.87;;;0.30;;
72113;SDS011;59989;46.220;19.888;2023-07-28T04:41:36;1.42;;;0.60;;
72113;SDS011;59989;46.220;19.888;2023-07-28T04:44:38;0.80;;;0.30;;
72113;SDS011;59989;46.220;19.888;2023-07-28T04:47:44;1.05;;;0.50;;
72113;SDS011;59989;46.220;19.888;2023-07-28T04:50:47;0.87;;;0.30;;
72113;SDS011;59989;46.220;19.888;2023-07-28T04:54:08;0.73;;;0.30;;
72113;SDS011;59989;46.220;19.888;2023-07-28T04:57:11;0.95;;;0.30;;
72113;SDS011;59989;46.220;19.888;2023-07-28T05:00:17;1.15;;;0.40;;
72113;SDS011;59989;46.220;19.888;2023-07-28T05:03:20;1.27;;;0.40;;
72113;SDS011;59989;46.220;19.888;2023-07-28T05:06:30;1.20;;;0.40;;
72113;SDS011;59989;46.220;19.888;2023-07-28T05:09:32;1.30;;;0.43;;
72113;SDS011;59989;46.220;19.888;2023-07-28T05:12:35;0.80;;;0.30;;
72113;SDS011;59989;46.220;19.888;2023-07-28T05:15:37;0.63;;;0.22;;
72113;SDS011;59989;46.220;19.888;2023-07-28T05:18:43;1.00;;;0.32;;
72113;SDS011;59989;46.220;19.888;2023-07-28T05:22:09;1.40;;;0.50;;
72113;SDS011;59989;46.220;19.888;2023-07-28T05:25:24;0.70;;;0.30;;
72113;SDS011;59989;46.220;19.888;2023-07-28T05:28:27;0.80;;;0.30;;
72113;SDS011;59989;46.220;19.888;2023-07-28T05:31:31;1.52;;;0.50;;
72113;SDS011;59989;46.220;19.888;2023-07-28T05:34:35;1.50;;;0.50;;
72113;SDS011;59989;46.220;19.888;2023-07-28T05:37:37;0.93;;;0.40;;
72113;SDS011;59989;46.220;19.888;2023-07-28T05:40:40;1.57;;;0.60;;
72113;SDS011;59989;46.220;19.888;2023-07-28T05:43:43;1.25;;;0.50;;
72113;SDS011;59989;46.220;19.888;2023-07-28T05:46:45;0.93;;;0.32;;
72113;SDS011;59989;46.220;19.888;2023-07-28T05:49:51;1.40;;;0.55;;
72113;SDS011;59989;46.220;19.888;2023-07-28T05:52:56;1.10;;;0.40;;
72113;SDS011;59989;46.220;19.888;2023-07-28T05:55:59;0.90;;;0.30;;
72113;SDS011;59989;46.220;19.888;2023-07-28T05:59:06;1.10;;;0.35;;
72113;SDS011;59989;46.220;19.888;2023-07-28T06:02:08;0.98;;;0.30;;
72113;SDS011;59989;46.220;19.888;2023-07-28T06:05:28;1.00;;;0.40;;
72113;SDS011;59989;46.220;19.888;2023-07-28T06:08:30;0.90;;;0.30;;
72113;SDS011;59989;46.220;19.888;2023-07-28T06:11:33;1.30;;;0.60;;
72113;SDS011;59989;46.220;19.888;2023-07-28T06:14:38;1.00;;;0.40;;
72113;SDS011;59989;46.220;19.888;2023-07-28T06:17:43;0.93;;;0.40;;
72113;SDS011;59989;46.220;19.888;2023-07-28T06:20:45;1.30;;;0.43;;
72113;SDS011;59989;46.220;19.888;2023-07-28T06:23:48;1.47;;;0.60;;
72113;SDS011;59989;46.220;19.888;2023-07-28T06:26:51;1.10;;;0.40;;
72113;SDS011;59989;46.220;19.888;2023-07-28T06:29:54;1.48;;;0.50;;
72113;SDS011;59989;46.220;19.888;2023-07-28T06:32:57;1.45;;;0.50;;
72113;SDS011;59989;46.220;19.888;2023-07-28T06:36:00;1.20;;;0.47;;
72113;SDS011;59989;46.220;19.888;2023-07-28T06:39:02;1.40;;;0.50;;
72113;SDS011;59989;46.220;19.888;2023-07-28T06:42:05;1.10;;;0.30;;
72113;SDS011;59989;46.220;19.888;2023-07-28T06:45:12;1.08;;;0.40;;
72113;SDS011;59989;46.220;19.888;2023-07-28T06:48:16;1.30;;;0.40;;
72113;SDS011;59989;46.220;19.888;2023-07-28T06:51:19;1.48;;;0.60;;
72113;SDS011;59989;46.220;19.888;2023-07-28T06:54:21;1.67;;;0.55;;
72113;SDS011;59989;46.220;19.888;2023-07-28T06:57:24;1.70;;;0.50;;
72113;SDS011;59989;46.220;19.888;2023-07-28T07:00:26;1.85;;;0.75;;
72113;SDS011;59989;46.220;19.888;2023-07-28T07:03:29;1.35;;;0.45;;
72113;SDS011;59989;46.220;19.888;2023-07-28T07:06:31;1.33;;;0.40;;
72113;SDS011;59989;46.220;19.888;2023-07-28T07:09:34;1.45;;;0.50;;
72113;SDS011;59989;46.220;19.888;2023-07-28T07:12:37;1.80;;;0.73;;
72113;SDS011;59989;46.220;19.888;2023-07-28T07:15:39;1.42;;;0.50;;
72113;SDS011;59989;46.220;19.888;2023-07-28T07:18:44;1.50;;;0.50;;
72113;SDS011;59989;46.220;19.888;2023-07-28T07:21:47;1.50;;;0.50;;
72113;SDS011;59989;46.220;19.888;2023-07-28T07:24:51;1.63;;;0.60;;
72113;SDS011;59989;46.220;19.888;2023-07-28T07:27:53;1.40;;;0.50;;
72113;SDS011;59989;46.220;19.888;2023-07-28T07:30:56;1.60;;;0.60;;
72113;SDS011;59989;46.220;19.888;2023-07-28T07:33:58;1.40;;;0.50;;
72113;SDS011;59989;46.220;19.888;2023-07-28T07:37:02;1.30;;;0.50;;
72113;SDS011;59989;46.220;19.888;2023-07-28T07:40:05;1.50;;;0.50;;
72113;SDS011;59989;46.220;19.888;2023-07-28T07:43:09;1.80;;;0.63;;
72113;SDS011;59989;46.220;19.888;2023-07-28T07:46:13;1.50;;;0.50;;
72113;SDS011;59989;46.220;19.888;2023-07-28T07:49:17;1.92;;;0.60;;
72113;SDS011;59989;46.220;19.888;2023-07-28T07:52:20;1.67;;;0.60;;
72113;SDS011;59989;46.220;19.888;2023-07-28T07:55:22;2.38;;;0.80;;
72113;SDS011;59989;46.220;19.888;2023-07-28T07:58:25;1.87;;;0.70;;
72113;SDS011;59989;46.220;19.888;2023-07-28T08:01:29;1.70;;;0.73;;
72113;SDS011;59989;46.220;19.888;2023-07-28T08:04:32;1.55;;;0.60;;
72113;SDS011;59989;46.220;19.888;2023-07-28T08:07:35;1.50;;;0.50;;
72113;SDS011;59989;46.220;19.888;2023-07-28T08:10:38;1.70;;;0.70;;
72113;SDS011;59989;46.220;19.888;2023-07-28T08:13:42;1.40;;;0.50;;
72113;SDS011;59989;46.220;19.888;2023-07-28T08:16:45;1.48;;;0.50;;
72113;SDS011;59989;46.220;19.888;2023-07-28T08:19:48;1.63;;;0.57;;
72113;SDS011;59989;46.220;19.888;2023-07-28T08:22:50;2.28;;;0.73;;
72113;SDS011;59989;46.220;19.888;2023-07-28T08:25:53;1.38;;;0.52;;
72113;SDS011;59989;46.220;19.888;2023-07-28T08:28:58;1.50;;;0.50;;
72113;SDS011;59989;46.220;19.888;2023-07-28T08:32:03;1.50;;;0.55;;
72113;SDS011;59989;46.220;19.888;2023-07-28T08:35:06;1.73;;;0.63;;
72113;SDS011;59989;46.220;19.888;2023-07-28T08:38:13;1.65;;;0.55;;
72113;SDS011;59989;46.220;19.888;2023-07-28T08:41:16;2.00;;;0.70;;
72113;SDS011;59989;46.220;19.888;2023-07-28T08:44:19;1.60;;;0.60;;
72113;SDS011;59989;46.220;19.888;2023-07-28T08:47:27;2.30;;;0.75;;
72113;SDS011;59989;46.220;19.888;2023-07-28T08:50:30;1.70;;;0.60;;
72113;SDS011;59989;46.220;19.888;2023-07-28T08:53:33;2.17;;;0.80;;
72113;SDS011;59989;46.220;19.888;2023-07-28T08:56:38;1.40;;;0.50;;
72113;SDS011;59989;46.220;19.888;2023-07-28T08:59:41;2.00;;;0.70;;
72113;SDS011;59989;46.220;19.888;2023-07-28T09:02:49;1.83;;;0.65;;
72113;SDS011;59989;46.220;19.888;2023-07-28T09:05:58;2.58;;;0.80;;
72113;SDS011;59989;46.220;19.888;2023-07-28T09:09:06;1.60;;;0.60;;
72113;SDS011;59989;46.220;19.888;2023-07-28T09:12:09;2.10;;;0.70;;
72113;SDS011;59989;46.220;19.888;2023-07-28T09:15:11;2.07;;;0.80;;
72113;SDS011;59989;46.220;19.888;2023-07-28T09:18:15;1.80;;;0.60;;
72113;SDS011;59989;46.220;19.888;2023-07-28T09:21:19;2.20;;;0.88;;
72113;SDS011;59989;46.220;19.888;2023-07-28T09:24:32;1.88;;;0.60;;
72113;SDS011;59989;46.220;19.888;2023-07-28T09:27:36;1.50;;;0.50;;
72113;SDS011;59989;46.220;19.888;2023-07-28T09:30:45;1.80;;;0.60;;
72113;SDS011;59989;46.220;19.888;2023-07-28T09:33:52;2.70;;;0.73;;
72113;SDS011;59989;46.220;19.888;2023-07-28T09:36:55;1.90;;;0.70;;
72113;SDS011;59989;46.220;19.888;2023-07-28T09:40:02;1.75;;;0.65;;
72113;SDS011;59989;46.220;19.888;2023-07-28T09:43:07;1.80;;;0.65;;
72113;SDS011;59989;46.220;19.888;2023-07-28T09:46:17;2.10;;;0.80;;
72113;SDS011;59989;46.220;19.888;2023-07-28T09:49:22;2.45;;;0.90;;
72113;SDS011;59989;46.220;19.888;2023-07-28T09:52:28;1.88;;;0.70;;
72113;SDS011;59989;46.220;19.888;2023-07-28T09:55:38;1.83;;;0.60;;
72113;SDS011;59989;46.220;19.888;2023-07-28T09:58:46;1.80;;;0.70;;
72113;SDS011;59989;46.220;19.888;2023-07-28T10:01:55;2.73;;;1.17;;
72113;SDS011;59989;46.220;19.888;2023-07-28T10:05:00;2.00;;;0.70;;
72113;SDS011;59989;46.220;19.888;2023-07-28T10:08:05;2.15;;;0.73;;
72113;SDS011;59989;46.220;19.888;2023-07-28T10:11:10;1.85;;;0.65;;
72113;SDS011;59989;46.220;19.888;2023-07-28T10:14:36;1.80;;;0.60;;
72113;SDS011;59989;46.220;19.888;2023-07-28T10:17:40;1.90;;;0.70;;
72113;SDS011;59989;46.220;19.888;2023-07-28T10:21:05;2.67;;;1.02;;
72113;SDS011;59989;46.220;19.888;2023-07-28T10:24:17;2.30;;;0.80;;
72113;SDS011;59989;46.220;19.888;2023-07-28T10:27:36;2.22;;;0.70;;
72113;SDS011;59989;46.220;19.888;2023-07-28T10:30:51;2.20;;;1.00;;
72113;SDS011;59989;46.220;19.888;2023-07-28T10:33:56;2.10;;;0.80;;
72113;SDS011;59989;46.220;19.888;2023-07-28T10:36:59;2.00;;;0.80;;
72113;SDS011;59989;46.220;19.888;2023-07-28T10:40:49;1.90;;;0.70;;
72113;SDS011;59989;46.220;19.888;2023-07-28T10:43:29;2.20;;;0.80;;
72113;SDS011;59989;46.220;19.888;2023-07-28T10:46:34;2.58;;;1.15;;
72113;SDS011;59989;46.220;19.888;2023-07-28T10:49:38;2.07;;;0.70;;
72113;SDS011;59989;46.220;19.888;2023-07-28T10:52:41;2.10;;;0.80;;
72113;SDS011;59989;46.220;19.888;2023-07-28T10:55:45;1.85;;;0.70;;
72113;SDS011;59989;46.220;19.888;2023-07-28T10:58:55;2.13;;;0.80;;
72113;SDS011;59989;46.220;19.888;2023-07-28T11:02:01;2.58;;;0.98;;
72113;SDS011;59989;46.220;19.888;2023-07-28T11:05:09;2.20;;;0.80;;
72113;SDS011;59989;46.220;19.888;2023-07-28T11:08:13;2.20;;;0.88;;
72113;SDS011;59989;46.220;19.888;2023-07-28T11:11:16;2.00;;;0.70;;
72113;SDS011;59989;46.220;19.888;2023-07-28T11:14:18;2.10;;;0.70;;
72113;SDS011;59989;46.220;19.888;2023-07-28T11:17:23;2.15;;;0.70;;
72113;SDS011;59989;46.220;19.888;2023-07-28T11:20:27;2.30;;;0.90;;
72113;SDS011;59989;46.220;19.888;2023-07-28T11:23:33;2.20;;;0.70;;
72113;SDS011;59989;46.220;19.888;2023-07-28T11:26:36;2.30;;;0.93;;
72113;SDS011;59989;46.220;19.888;2023-07-28T11:29:42;2.10;;;0.75;;
72113;SDS011;59989;46.220;19.888;2023-07-28T11:32:46;1.80;;;0.70;;
72113;SDS011;59989;46.220;19.888;2023-07-28T11:35:50;1.80;;;0.67;;
72113;SDS011;59989;46.220;19.888;2023-07-28T11:38:53;2.20;;;0.80;;
72113;SDS011;59989;46.220;19.888;2023-07-28T11:41:57;1.95;;;0.70;;
72113;SDS011;59989;46.220;19.888;2023-07-28T11:44:59;2.55;;;1.00;;
72113;SDS011;59989;46.220;19.888;2023-07-28T11:51:12;2.07;;;0.73;;
72113;SDS011;59989;46.220;19.888;2023-07-28T11:54:16;2.20;;;0.85;;
72113;SDS011;59989;46.220;19.888;2023-07-28T11:57:25;2.60;;;1.00;;
72113;SDS011;59989;46.220;19.888;2023-07-28T12:00:29;2.47;;;0.95;;
72113;SDS011;59989;46.220;19.888;2023-07-28T12:03:40;2.78;;;1.00;;
72113;SDS011;59989;46.220;19.888;2023-07-28T12:10:16;3.13;;;1.10;;
72113;SDS011;59989;46.220;19.888;2023-07-28T12:13:49;2.92;;;1.23;;
72113;SDS011;59989;46.220;19.888;2023-07-28T12:16:56;2.00;;;0.80;;
72113;SDS011;59989;46.220;19.888;2023-07-28T12:20:03;2.60;;;1.00;;
72113;SDS011;59989;46.220;19.888;2023-07-28T12:23:19;3.10;;;1.20;;
72113;SDS011;59989;46.220;19.888;2023-07-28T12:26:26;2.50;;;0.88;;
72113;SDS011;59989;46.220;19.888;2023-07-28T12:29:28;2.33;;;0.90;;
72113;SDS011;59989;46.220;19.888;2023-07-28T12:32:33;2.35;;;0.90;;
72113;SDS011;59989;46.220;19.888;2023-07-28T12:35:39;2.65;;;1.05;;
72113;SDS011;59989;46.220;19.888;2023-07-28T12:38:46;2.57;;;1.00;;
72113;SDS011;59989;46.220;19.888;2023-07-28T12:41:50;2.75;;;1.08;;
72113;SDS011;59989;46.220;19.888;2023-07-28T12:45:12;2.50;;;1.00;;
72113;SDS011;59989;46.220;19.888;2023-07-28T12:48:18;2.50;;;1.00;;
72113;SDS011;59989;46.220;19.888;2023-07-28T12:51:23;3.17;;;1.17;;
72113;SDS011;59989;46.220;19.888;2023-07-28T12:54:30;3.33;;;1.33;;
72113;SDS011;59989;46.220;19.888;2023-07-28T12:57:32;4.10;;;1.70;;
72113;SDS011;59989;46.220;19.888;2023-07-28T13:00:35;3.17;;;1.30;;
72113;SDS011;59989;46.220;19.888;2023-07-28T13:03:40;3.50;;;1.50;;
72113;SDS011;59989;46.220;19.888;2023-07-28T13:06:44;3.53;;;1.50;;
72113;SDS011;59989;46.220;19.888;2023-07-28T13:09:46;4.23;;;1.90;;
72113;SDS011;59989;46.220;19.888;2023-07-28T13:12:50;3.70;;;1.80;;
72113;SDS011;59989;46.220;19.888;2023-07-28T13:15:53;3.55;;;1.50;;
72113;SDS011;59989;46.220;19.888;2023-07-28T13:18:57;3.72;;;1.63;;
72113;SDS011;59989;46.220;19.888;2023-07-28T13:22:02;4.32;;;1.90;;
72113;SDS011;59989;46.220;19.888;2023-07-28T13:25:04;3.83;;;1.60;;
72113;SDS011;59989;46.220;19.888;2023-07-28T13:28:07;3.67;;;1.63;;
72113;SDS011;59989;46.220;19.888;2023-07-28T13:31:15;4.05;;;1.75;;
72113;SDS011;59989;46.220;19.888;2023-07-28T13:34:18;4.05;;;1.80;;
72113;SDS011;59989;46.220;19.888;2023-07-28T13:37:20;3.70;;;1.70;;
72113;SDS011;59989;46.220;19.888;2023-07-28T13:40:24;4.30;;;2.03;;
72113;SDS011;59989;46.220;19.888;2023-07-28T13:43:29;4.18;;;1.85;;
72113;SDS011;59989;46.220;19.888;2023-07-28T13:46:31;4.18;;;1.85;;
72113;SDS011;59989;46.220;19.888;2023-07-28T13:49:35;4.18;;;1.85;;
72113;SDS011;59989;46.220;19.888;2023-07-28T13:52:53;4.65;;;2.42;;
72113;SDS011;59989;46.220;19.888;2023-07-28T13:55:55;4.20;;;1.83;;
72113;SDS011;59989;46.220;19.888;2023-07-28T13:58:59;3.88;;;1.67;;
72113;SDS011;59989;46.220;19.888;2023-07-28T14:02:01;4.57;;;2.20;;
72113;SDS011;59989;46.220;19.888;2023-07-28T14:05:05;4.60;;;2.15;;
72113;SDS011;59989;46.220;19.888;2023-07-28T14:08:09;6.35;;;2.33;;
72113;SDS011;59989;46.220;19.888;2023-07-28T14:11:12;5.27;;;2.53;;
72113;SDS011;59989;46.220;19.888;2023-07-28T14:14:14;4.68;;;2.28;;
72113;SDS011;59989;46.220;19.888;2023-07-28T14:17:17;6.05;;;3.05;;
72113;SDS011;59989;46.220;19.888;2023-07-28T14:20:19;4.60;;;2.25;;
72113;SDS011;59989;46.220;19.888;2023-07-28T14:23:26;5.18;;;2.22;;
72113;SDS011;59989;46.220;19.888;2023-07-28T14:26:30;4.80;;;2.30;;
72113;SDS011;59989;46.220;19.888;2023-07-28T14:29:32;5.00;;;2.80;;
72113;SDS011;59989;46.220;19.888;2023-07-28T14:32:35;4.47;;;2.10;;
72113;SDS011;59989;46.220;19.888;2023-07-28T14:35:37;5.00;;;2.63;;
72113;SDS011;59989;46.220;19.888;2023-07-28T14:38:40;5.05;;;2.60;;
72113;SDS011;59989;46.220;19.888;2023-07-28T14:41:42;4.87;;;2.37;;
72113;SDS011;59989;46.220;19.888;2023-07-28T14:44:45;4.57;;;2.25;;
72113;SDS011;59989;46.220;19.888;2023-07-28T14:47:48;4.50;;;2.15;;
72113;SDS011;59989;46.220;19.888;2023-07-28T14:50:50;4.50;;;2.05;;
72113;SDS011;59989;46.220;19.888;2023-07-28T14:53:53;4.78;;;2.38;;
72113;SDS011;59989;46.220;19.888;2023-07-28T14:56:57;4.77;;;2.27;;
72113;SDS011;59989;46.220;19.888;2023-07-28T15:00:00;4.30;;;1.90;;
72113;SDS011;59989;46.220;19.888;2023-07-28T15:03:03;4.75;;;2.35;;
72113;SDS011;59989;46.220;19.888;2023-07-28T15:06:05;4.55;;;2.15;;
72113;SDS011;59989;46.220;19.888;2023-07-28T15:09:08;4.47;;;2.05;;
72113;SDS011;59989;46.220;19.888;2023-07-28T15:12:10;4.90;;;2.67;;
72113;SDS011;59989;46.220;19.888;2023-07-28T15:15:13;4.32;;;2.00;;
72113;SDS011;59989;46.220;19.888;2023-07-28T15:18:16;4.40;;;2.00;;
72113;SDS011;59989;46.220;19.888;2023-07-28T15:21:19;4.65;;;2.30;;
72113;SDS011;59989;46.220;19.888;2023-07-28T15:24:21;4.68;;;2.22;;
72113;SDS011;59989;46.220;19.888;2023-07-28T15:27:23;4.40;;;2.10;;
72113;SDS011;59989;46.220;19.888;2023-07-28T15:30:26;4.50;;;2.28;;
72113;SDS011;59989;46.220;19.888;2023-07-28T15:33:29;5.38;;;2.10;;
72113;SDS011;59989;46.220;19.888;2023-07-28T15:36:32;4.70;;;2.47;;
72113;SDS011;59989;46.220;19.888;2023-07-28T15:39:35;4.22;;;2.00;;
72113;SDS011;59989;46.220;19.888;2023-07-28T15:42:37;4.10;;;1.97;;
72113;SDS011;59989;46.220;19.888;2023-07-28T15:45:40;4.45;;;1.95;;
72113;SDS011;59989;46.220;19.888;2023-07-28T15:48:42;4.53;;;2.10;;
72113;SDS011;59989;46.220;19.888;2023-07-28T15:51:46;4.60;;;2.20;;
72113;SDS011;59989;46.220;19.888;2023-07-28T15:54:48;4.55;;;2.35;;
72113;SDS011;59989;46.220;19.888;2023-07-28T15:57:51;4.73;;;2.33;;
72113;SDS011;59989;46.220;19.888;2023-07-28T16:00:53;4.43;;;2.17;;
72113;SDS011;59989;46.220;19.888;2023-07-28T16:03:57;4.85;;;2.42;;
72113;SDS011;59989;46.220;19.888;2023-07-28T16:06:59;5.10;;;2.00;;
72113;SDS011;59989;46.220;19.888;2023-07-28T16:10:02;3.53;;;1.30;;
72113;SDS011;59989;46.220;19.888;2023-07-28T16:13:06;2.80;;;1.13;;
72113;SDS011;59989;46.220;19.888;2023-07-28T16:16:08;2.58;;;1.00;;
72113;SDS011;59989;46.220;19.888;2023-07-28T16:19:12;3.25;;;1.20;;
72113;SDS011;59989;46.220;19.888;2023-07-28T16:22:15;3.22;;;1.48;;
72113;SDS011;59989;46.220;19.888;2023-07-28T16:25:19;2.90;;;1.10;;
72113;SDS011;59989;46.220;19.888;2023-07-28T16:28:22;2.10;;;0.83;;
72113;SDS011;59989;46.220;19.888;2023-07-28T16:31:24;2.10;;;0.80;;
72113;SDS011;59989;46.220;19.888;2023-07-28T16:34:27;2.33;;;0.88;;
72113;SDS011;59989;46.220;19.888;2023-07-28T16:37:31;3.67;;;1.50;;
72113;SDS011;59989;46.220;19.888;2023-07-28T16:40:33;3.22;;;1.40;;
72113;SDS011;59989;46.220;19.888;2023-07-28T16:43:36;3.20;;;1.30;;
72113;SDS011;59989;46.220;19.888;2023-07-28T16:46:39;2.95;;;1.17;;
72113;SDS011;59989;46.220;19.888;2023-07-28T16:49:41;2.85;;;1.10;;
72113;SDS011;59989;46.220;19.888;2023-07-28T16:52:44;2.92;;;1.20;;
72113;SDS011;59989;46.220;19.888;2023-07-28T16:55:47;2.50;;;1.00;;
72113;SDS011;59989;46.220;19.888;2023-07-28T16:58:49;2.43;;;0.93;;
72113;SDS011;59989;46.220;19.888;2023-07-28T17:01:52;1.90;;;0.70;;
72113;SDS011;59989;46.220;19.888;2023-07-28T17:04:54;3.25;;;1.25;;
72113;SDS011;59989;46.220;19.888;2023-07-28T17:07:59;2.08;;;0.80;;
72113;SDS011;59989;46.220;19.888;2023-07-28T17:11:02;1.98;;;0.70;;
72113;SDS011;59989;46.220;19.888;2023-07-28T17:14:05;2.13;;;0.83;;
72113;SDS011;59989;46.220;19.888;2023-07-28T17:17:07;2.03;;;0.73;;
72113;SDS011;59989;46.220;19.888;2023-07-28T17:20:10;1.85;;;0.70;;
72113;SDS011;59989;46.220;19.888;2023-07-28T17:23:14;1.85;;;0.68;;
72113;SDS011;59989;46.220;19.888;2023-07-28T17:26:17;1.73;;;0.60;;
72113;SDS011;59989;46.220;19.888;2023-07-28T17:29:19;2.03;;;0.90;;
72113;SDS011;59989;46.220;19.888;2023-07-28T17:32:22;5.70;;;0.85;;
72113;SDS011;59989;46.220;19.888;2023-07-28T17:35:24;1.80;;;0.70;;
72113;SDS011;59989;46.220;19.888;2023-07-28T17:38:27;2.08;;;0.70;;
72113;SDS011;59989;46.220;19.888;2023-07-28T17:41:31;1.63;;;0.60;;
72113;SDS011;59989;46.220;19.888;2023-07-28T17:44:33;1.60;;;0.50;;
72113;SDS011;59989;46.220;19.888;2023-07-28T17:47:36;1.60;;;0.60;;
72113;SDS011;59989;46.220;19.888;2023-07-28T17:50:41;1.60;;;0.60;;
72113;SDS011;59989;46.220;19.888;2023-07-28T17:53:44;1.80;;;0.60;;
72113;SDS011;59989;46.220;19.888;2023-07-28T17:56:46;8.85;;;0.85;;
72113;SDS011;59989;46.220;19.888;2023-07-28T17:59:49;1.70;;;0.60;;
72113;SDS011;59989;46.220;19.888;2023-07-28T18:02:51;2.20;;;0.75;;
72113;SDS011;59989;46.220;19.888;2023-07-28T18:05:54;1.30;;;0.50;;
72113;SDS011;59989;46.220;19.888;2023-07-28T18:08:58;1.38;;;0.50;;
72113;SDS011;59989;46.220;19.888;2023-07-28T18:12:00;2.50;;;1.05;;
72113;SDS011;59989;46.220;19.888;2023-07-28T18:15:03;1.93;;;0.63;;
72113;SDS011;59989;46.220;19.888;2023-07-28T18:18:06;1.70;;;0.60;;
72113;SDS011;59989;46.220;19.888;2023-07-28T18:21:09;1.85;;;0.65;;